createdAt,value
2022-11-28T00:00:06.297Z,84.90
2022-11-28T00:02:32.947Z,85.10
2022-11-28T00:04:59.648Z,85.00
2022-11-28T00:07:26.408Z,85.10
2022-11-28T00:09:53.034Z,85.00
2022-11-28T00:12:19.719Z,85.20
2022-11-28T00:14:46.280Z,85.00
2022-11-28T00:17:12.891Z,85.10
2022-11-28T00:19:39.442Z,85.90
2022-11-28T00:22:06.102Z,85.20
2022-11-28T00:24:32.642Z,85.20
2022-11-28T00:26:59.218Z,85.20
2022-11-28T00:29:25.865Z,85.20
2022-11-28T00:31:52.494Z,85.30
2022-11-28T00:34:19.285Z,85.30
2022-11-28T00:36:47.335Z,85.40
2022-11-28T00:39:14.984Z,85.40
2022-11-28T00:41:41.905Z,85.40
2022-11-28T00:44:08.897Z,85.40
2022-11-28T00:46:35.558Z,85.40
2022-11-28T00:49:02.158Z,85.40
2022-11-28T00:51:31.118Z,85.40
2022-11-28T00:53:59.666Z,85.40
2022-11-28T00:56:29.989Z,85.40
2022-11-28T00:58:57.023Z,85.40
2022-11-28T01:01:26.476Z,85.40
2022-11-28T01:03:55.291Z,85.50
2022-11-28T01:06:29.429Z,85.50
2022-11-28T01:08:57.889Z,85.50
2022-11-28T01:11:24.653Z,85.50
2022-11-28T01:13:53.745Z,85.50
2022-11-28T01:16:20.402Z,85.50
2022-11-28T01:18:47.042Z,85.50
2022-11-28T01:21:14.194Z,85.70
2022-11-28T01:23:40.787Z,85.70
2022-11-28T01:26:11.481Z,85.70
2022-11-28T01:28:38.083Z,86.00
2022-11-28T01:31:11.191Z,85.80
2022-11-28T01:33:38.026Z,85.90
2022-11-28T01:36:05.222Z,85.90
2022-11-28T01:38:32.079Z,85.90
2022-11-28T01:40:58.664Z,86.00
2022-11-28T01:43:25.492Z,86.00
2022-11-28T01:45:53.022Z,86.20
2022-11-28T01:48:29.079Z,86.20
2022-11-28T01:51:00.338Z,86.10
2022-11-28T01:53:30.373Z,86.20
2022-11-28T01:56:05.843Z,86.30
2022-11-28T01:58:36.228Z,86.50
2022-11-28T02:01:03.969Z,86.50
2022-11-28T02:03:37.817Z,86.40
2022-11-28T02:06:04.805Z,86.50
2022-11-28T02:08:35.765Z,86.60
2022-11-28T02:11:17.280Z,87.30
2022-11-28T02:13:55.586Z,86.50
2022-11-28T02:16:43.717Z,86.60
2022-11-28T02:19:25.358Z,86.50
2022-11-28T02:22:13.361Z,86.50
2022-11-28T02:25:08.629Z,86.50
2022-11-28T02:28:14.941Z,86.50
2022-11-28T02:30:50.377Z,86.50
2022-11-28T02:33:23.965Z,86.60
2022-11-28T02:35:56.497Z,86.40
2022-11-28T02:38:40.226Z,86.40
2022-11-28T02:41:32.269Z,86.40
2022-11-28T02:44:11.168Z,86.50
2022-11-28T02:46:53.174Z,86.50
2022-11-28T02:49:30.997Z,86.50
2022-11-28T02:52:03.270Z,86.50
2022-11-28T02:54:31.635Z,86.50
2022-11-28T02:56:58.228Z,86.40
2022-11-28T02:59:36.985Z,86.40
2022-11-28T03:02:24.066Z,86.40
2022-11-28T03:04:57.231Z,86.40
2022-11-28T03:08:02.997Z,86.40
2022-11-28T03:10:37.426Z,86.40
2022-11-28T03:13:26.182Z,86.40
2022-11-28T03:16:07.958Z,86.40
2022-11-28T03:18:56.763Z,86.40
2022-11-28T03:21:38.964Z,86.40
2022-11-28T03:24:41.713Z,86.30
2022-11-28T03:27:21.025Z,86.30
2022-11-28T03:30:00.964Z,86.30
2022-11-28T03:32:35.254Z,86.30
2022-11-28T03:35:09.913Z,86.30
2022-11-28T03:37:44.019Z,86.30
2022-11-28T03:40:20.432Z,86.30
2022-11-28T03:42:57.533Z,86.30
2022-11-28T03:45:27.548Z,86.30
2022-11-28T03:48:00.610Z,86.20
2022-11-28T03:50:35.594Z,86.30
2022-11-28T03:53:11.481Z,86.20
2022-11-28T03:55:45.474Z,86.10
2022-11-28T03:58:14.996Z,86.10
2022-11-28T04:00:56.778Z,86.00
2022-11-28T04:03:36.058Z,86.00
2022-11-28T04:06:04.929Z,85.90
2022-11-28T04:08:42.934Z,85.90
2022-11-28T04:11:16.073Z,86.00
2022-11-28T04:14:00.535Z,86.10
2022-11-28T04:16:39.032Z,86.10
2022-11-28T04:19:23.325Z,86.10
2022-11-28T04:22:13.173Z,86.10
2022-11-28T04:24:52.827Z,86.00
2022-11-28T04:27:25.314Z,86.00
2022-11-28T04:29:56.301Z,85.90
2022-11-28T04:32:24.929Z,86.00
2022-11-28T04:34:58.026Z,85.90
2022-11-28T04:37:26.443Z,85.90
2022-11-28T04:39:54.689Z,85.90
2022-11-28T04:42:26.292Z,86.00
2022-11-28T04:45:11.677Z,85.90
2022-11-28T04:47:38.381Z,86.00
2022-11-28T04:50:05.781Z,85.90
2022-11-28T04:53:01.162Z,85.90
2022-11-28T04:55:45.120Z,85.90
2022-11-28T04:58:18.133Z,85.90
2022-11-28T05:00:46.599Z,85.90
2022-11-28T05:03:13.360Z,86.00
2022-11-28T05:05:48.785Z,86.00
2022-11-28T05:08:17.086Z,85.90
2022-11-28T05:10:44.227Z,85.90
2022-11-28T05:13:10.918Z,85.90
2022-11-28T05:15:37.598Z,85.90
2022-11-28T05:18:04.561Z,85.90
2022-11-28T05:20:31.857Z,85.80
2022-11-28T05:22:58.608Z,85.90
2022-11-28T05:25:25.248Z,85.90
2022-11-28T05:27:51.912Z,85.90
2022-11-28T05:30:18.549Z,85.90
2022-11-28T05:32:45.136Z,85.90
2022-11-28T05:35:11.841Z,85.80
2022-11-28T05:37:38.685Z,85.80
2022-11-28T05:40:06.446Z,85.90
2022-11-28T05:42:34.395Z,85.90
2022-11-28T05:45:01.761Z,86.00
2022-11-28T05:47:31.157Z,85.90
2022-11-28T05:49:57.766Z,85.90
2022-11-28T05:52:24.518Z,85.90
2022-11-28T05:54:51.145Z,85.90
2022-11-28T05:57:17.749Z,85.90
2022-11-28T05:59:44.649Z,86.00
2022-11-28T06:02:11.568Z,86.00
2022-11-28T06:04:38.203Z,86.70
2022-11-28T06:07:04.874Z,86.00
2022-11-28T06:09:31.492Z,86.00
2022-11-28T06:11:58.039Z,85.90
2022-11-28T06:14:24.621Z,85.90
2022-11-28T06:16:51.300Z,85.90
2022-11-28T06:19:18.142Z,85.90
2022-11-28T06:21:44.830Z,85.80
2022-11-28T06:24:11.369Z,85.90
2022-11-28T06:26:37.986Z,86.00
2022-11-28T06:29:04.586Z,85.90
2022-11-28T06:31:31.428Z,85.80
2022-11-28T06:33:58.628Z,85.80
2022-11-28T06:36:26.170Z,85.90
2022-11-28T06:38:53.277Z,85.90
2022-11-28T06:41:22.597Z,85.80
2022-11-28T06:43:49.697Z,85.80
2022-11-28T06:46:19.021Z,85.80
2022-11-28T06:48:47.162Z,85.80
2022-11-28T06:51:14.484Z,85.90
2022-11-28T06:53:41.434Z,85.90
2022-11-28T06:56:10.967Z,85.90
2022-11-28T06:58:37.986Z,85.90
2022-11-28T07:01:13.276Z,85.80
2022-11-28T07:03:40.580Z,85.90
2022-11-28T07:06:09.426Z,85.90
2022-11-28T07:08:36.679Z,85.80
2022-11-28T07:11:15.755Z,85.90
2022-11-28T07:13:43.641Z,85.90
2022-11-28T07:16:15.695Z,85.80
2022-11-28T07:18:43.054Z,85.90
2022-11-28T07:21:09.980Z,85.90
2022-11-28T07:23:37.018Z,85.80
2022-11-28T07:26:05.101Z,85.90
2022-11-28T07:28:33.329Z,85.90
2022-11-28T07:31:11.402Z,85.90
2022-11-28T07:33:42.147Z,85.90
2022-11-28T07:36:13.366Z,85.90
2022-11-28T07:38:40.030Z,86.60
2022-11-28T07:41:09.361Z,85.90
2022-11-28T07:43:35.990Z,85.90
2022-11-28T07:46:08.469Z,85.90
2022-11-28T07:48:35.828Z,85.90
2022-11-28T07:51:08.538Z,85.90
2022-11-28T07:53:35.623Z,85.90
2022-11-28T07:56:06.684Z,85.80
2022-11-28T07:58:34.918Z,85.80
2022-11-28T08:01:15.068Z,85.80
2022-11-28T08:03:42.410Z,85.80
2022-11-28T08:06:09.076Z,85.80
2022-11-28T08:08:35.737Z,85.80
2022-11-28T08:11:04.434Z,85.80
2022-11-28T08:13:31.787Z,85.80
2022-11-28T08:15:58.522Z,85.80
2022-11-28T08:18:25.237Z,85.80
2022-11-28T08:20:51.860Z,85.80
2022-11-28T08:23:18.466Z,85.80
2022-11-28T08:25:45.031Z,85.70
2022-11-28T08:28:11.671Z,85.80
2022-11-28T08:30:38.319Z,85.80
2022-11-28T08:33:04.909Z,85.80
2022-11-28T08:35:31.604Z,85.80
2022-11-28T08:38:01.817Z,85.80
2022-11-28T08:40:28.929Z,85.80
2022-11-28T08:42:55.757Z,85.70
2022-11-28T08:45:22.302Z,85.80
2022-11-28T08:47:48.936Z,85.80
2022-11-28T08:50:15.623Z,85.80
2022-11-28T08:52:42.178Z,85.90
2022-11-28T08:55:09.199Z,85.90
2022-11-28T08:57:35.818Z,85.90
2022-11-28T09:00:02.665Z,85.90
2022-11-28T09:02:29.257Z,86.00
2022-11-28T09:04:55.889Z,86.00
2022-11-28T09:07:22.565Z,86.10
2022-11-28T09:09:49.444Z,86.10
2022-11-28T09:12:16.644Z,86.10
2022-11-28T09:14:43.214Z,86.10
2022-11-28T09:17:09.976Z,86.00
2022-11-28T09:19:36.637Z,86.00
2022-11-28T09:22:03.254Z,86.00
2022-11-28T09:24:29.809Z,86.00
2022-11-28T09:26:56.726Z,86.10
2022-11-28T09:29:23.595Z,86.20
2022-11-28T09:31:50.208Z,86.20
2022-11-28T09:34:16.741Z,86.10
2022-11-28T09:36:43.360Z,86.20
2022-11-28T09:39:10.023Z,86.20
2022-11-28T09:42:13.239Z,86.20
2022-11-28T09:44:52.926Z,86.20
2022-11-28T09:47:31.845Z,86.30
2022-11-28T09:50:04.130Z,86.30
2022-11-28T09:52:42.842Z,86.30
2022-11-28T09:55:34.443Z,86.30
2022-11-28T09:58:16.072Z,86.40
2022-11-28T10:00:55.504Z,86.30
2022-11-28T10:03:32.813Z,86.40
2022-11-28T10:06:18.074Z,86.40
2022-11-28T10:09:14.973Z,86.50
2022-11-28T10:12:03.929Z,86.40
2022-11-28T10:14:54.950Z,86.40
2022-11-28T10:17:36.578Z,86.40
2022-11-28T10:20:10.060Z,86.30
2022-11-28T10:22:56.869Z,86.20
2022-11-28T10:25:46.862Z,86.30
2022-11-28T10:28:48.206Z,86.30
2022-11-28T10:31:14.756Z,86.30
2022-11-28T10:34:08.302Z,86.40
2022-11-28T10:36:50.334Z,86.40
2022-11-28T10:39:16.963Z,86.50
2022-11-28T10:42:11.356Z,86.50
2022-11-28T10:45:18.027Z,86.40
2022-11-28T10:48:38.377Z,86.40
2022-11-28T10:50:59.825Z,86.40
2022-11-28T10:53:38.300Z,86.40
2022-11-28T10:56:11.746Z,86.40
2022-11-28T10:58:54.917Z,86.40
2022-11-28T11:01:21.928Z,86.40
2022-11-28T11:03:49.028Z,86.40
2022-11-28T11:06:15.644Z,86.50
2022-11-28T11:08:42.341Z,86.50
2022-11-28T11:11:22.566Z,86.50
2022-11-28T11:14:07.686Z,86.40
2022-11-28T11:16:54.170Z,86.30
2022-11-28T11:19:26.421Z,86.30
2022-11-28T11:22:20.844Z,86.40
2022-11-28T11:25:12.390Z,86.30
2022-11-28T11:27:54.377Z,87.00
2022-11-28T11:30:30.522Z,86.20
2022-11-28T11:32:59.227Z,86.30
2022-11-28T11:35:35.145Z,86.30
2022-11-28T11:38:18.670Z,86.10
2022-11-28T11:40:45.370Z,86.30
2022-11-28T11:43:26.598Z,86.30
2022-11-28T11:46:11.137Z,86.30
2022-11-28T11:48:47.764Z,86.20
2022-11-28T11:51:37.991Z,86.20
2022-11-28T11:54:20.970Z,86.30
2022-11-28T11:57:00.745Z,86.20
2022-11-28T11:59:44.048Z,86.30
2022-11-28T12:02:24.498Z,86.30
2022-11-28T12:05:23.792Z,86.20
2022-11-28T12:08:12.648Z,86.20
2022-11-28T12:11:11.887Z,86.10
2022-11-28T12:13:38.632Z,86.10
2022-11-28T12:16:32.916Z,86.10
2022-11-28T12:19:33.682Z,86.10
2022-11-28T12:22:28.948Z,86.20
2022-11-28T12:25:23.674Z,86.20
2022-11-28T12:27:50.237Z,86.10
2022-11-28T12:30:29.073Z,86.00
2022-11-28T12:33:16.225Z,86.10
2022-11-28T12:35:46.261Z,86.20
2022-11-28T12:38:31.781Z,86.20
2022-11-28T12:41:24.048Z,86.10
2022-11-28T12:44:19.460Z,86.20
2022-11-28T12:47:07.522Z,86.20
2022-11-28T12:49:57.387Z,86.20
2022-11-28T12:52:48.106Z,86.20
2022-11-28T12:55:43.720Z,86.30
2022-11-28T12:58:21.820Z,86.20
2022-11-28T13:01:14.712Z,86.20
2022-11-28T13:03:57.142Z,86.10
2022-11-28T13:06:28.761Z,86.10
2022-11-28T13:09:21.196Z,86.10
2022-11-28T13:12:06.555Z,86.10
2022-11-28T13:14:50.578Z,86.20
2022-11-28T13:17:17.169Z,86.10
2022-11-28T13:19:54.936Z,86.10
2022-11-28T13:22:27.962Z,86.00
2022-11-28T13:25:09.622Z,86.00
2022-11-28T13:27:45.027Z,86.00
2022-11-28T13:30:23.435Z,85.90
2022-11-28T13:33:18.215Z,86.00
2022-11-28T13:35:46.356Z,85.90
2022-11-28T13:38:44.122Z,85.90
2022-11-28T13:42:28.370Z,85.80
2022-11-28T13:45:31.708Z,85.80
2022-11-28T13:48:00.247Z,85.70
2022-11-28T13:50:33.926Z,85.80
2022-11-28T13:53:06.347Z,85.70
2022-11-28T13:55:51.493Z,85.70
2022-11-28T13:58:40.282Z,85.80
2022-11-28T14:01:13.986Z,85.80
2022-11-28T14:04:09.541Z,85.60
2022-11-28T14:06:45.124Z,85.60
2022-11-28T14:09:11.686Z,85.60
2022-11-28T14:11:49.634Z,86.40
2022-11-28T14:14:53.818Z,85.70
2022-11-28T14:17:41.035Z,85.80
2022-11-28T14:20:28.681Z,85.70
2022-11-28T14:23:01.753Z,85.70
2022-11-28T14:25:32.426Z,85.60
2022-11-28T14:28:05.325Z,85.60
2022-11-28T14:30:36.156Z,85.50
2022-11-28T14:33:25.760Z,85.50
2022-11-28T14:35:57.836Z,85.50
2022-11-28T14:38:30.476Z,85.40
2022-11-28T14:40:57.140Z,85.40
2022-11-28T14:43:23.745Z,85.40
2022-11-28T14:46:11.210Z,85.40
2022-11-28T14:48:42.095Z,85.40
2022-11-28T14:51:09.305Z,85.30
2022-11-28T14:53:36.353Z,85.30
2022-11-28T14:56:14.946Z,85.30
2022-11-28T14:58:52.958Z,85.30
2022-11-28T15:02:04.283Z,85.30
2022-11-28T15:04:54.381Z,85.40
2022-11-28T15:07:35.013Z,85.30
2022-11-28T15:10:17.641Z,85.30
2022-11-28T15:13:11.908Z,85.20
2022-11-28T15:15:47.740Z,85.20
2022-11-28T15:18:14.867Z,85.20
2022-11-28T15:20:48.845Z,85.10
2022-11-28T15:23:28.843Z,85.20
2022-11-28T15:25:56.932Z,85.30
2022-11-28T15:28:28.118Z,85.20
2022-11-28T15:31:00.428Z,85.20
2022-11-28T15:33:27.571Z,85.20
2022-11-28T15:36:15.841Z,85.10
2022-11-28T15:38:43.430Z,85.20
2022-11-28T15:41:10.714Z,85.20
2022-11-28T15:43:42.194Z,85.10
2022-11-28T15:46:19.237Z,85.10
2022-11-28T15:48:53.680Z,85.10
2022-11-28T15:51:29.718Z,85.10
2022-11-28T15:53:56.842Z,85.10
2022-11-28T15:56:23.610Z,85.10
2022-11-28T15:58:51.658Z,85.10
2022-11-28T16:01:22.925Z,85.00
2022-11-28T16:04:14.603Z,85.00
2022-11-28T16:06:44.142Z,85.00
2022-11-28T16:09:25.249Z,85.70
2022-11-28T16:11:53.502Z,85.00
2022-11-28T16:14:30.886Z,84.90
2022-11-28T16:16:59.262Z,84.80
2022-11-28T16:19:31.150Z,84.90
2022-11-28T16:22:05.541Z,84.80
2022-11-28T16:24:43.160Z,84.90
2022-11-28T16:27:27.470Z,84.90
2022-11-28T16:29:54.134Z,84.90
2022-11-28T16:32:40.779Z,84.90
2022-11-28T16:35:12.360Z,85.00
2022-11-28T16:37:39.245Z,85.40
2022-11-28T16:40:10.497Z,85.00
2022-11-28T16:42:37.116Z,85.00
2022-11-28T16:45:20.511Z,85.00
2022-11-28T16:48:00.665Z,85.00
2022-11-28T16:50:27.668Z,85.00
2022-11-28T16:52:57.929Z,84.90
2022-11-28T16:55:27.304Z,85.00
2022-11-28T16:58:07.252Z,85.00
2022-11-28T17:00:34.860Z,85.00
2022-11-28T17:03:01.830Z,85.10
2022-11-28T17:05:28.498Z,85.00
2022-11-28T17:07:55.454Z,84.80
2022-11-28T17:10:22.077Z,84.80
2022-11-28T17:12:48.650Z,84.70
2022-11-28T17:15:17.885Z,84.70
2022-11-28T17:17:44.558Z,84.50
2022-11-28T17:20:17.825Z,84.60
2022-11-28T17:22:47.592Z,84.60
2022-11-28T17:25:19.660Z,84.70
2022-11-28T17:27:48.006Z,84.70
2022-11-28T17:30:17.264Z,84.70
2022-11-28T17:32:44.027Z,84.70
2022-11-28T17:35:20.028Z,84.80
2022-11-28T17:37:46.685Z,84.60
2022-11-28T17:40:31.768Z,84.50
2022-11-28T17:42:58.725Z,84.50
2022-11-28T17:45:26.480Z,84.40
2022-11-28T17:47:53.155Z,84.40
2022-11-28T17:50:19.757Z,84.30
2022-11-28T17:52:46.306Z,84.30
2022-11-28T17:55:13.229Z,84.30
2022-11-28T17:57:39.846Z,84.20
2022-11-28T18:00:08.592Z,84.20
2022-11-28T18:02:35.265Z,84.10
2022-11-28T18:05:01.992Z,84.00
2022-11-28T18:07:29.897Z,84.00
2022-11-28T18:09:56.507Z,83.90
2022-11-28T18:12:23.061Z,84.00
2022-11-28T18:14:49.698Z,83.90
2022-11-28T18:17:16.300Z,84.00
2022-11-28T18:19:43.110Z,84.00
2022-11-28T18:22:09.789Z,84.00
2022-11-28T18:24:36.349Z,84.00
2022-11-28T18:27:02.945Z,84.10
2022-11-28T18:29:29.513Z,84.20
2022-11-28T18:31:56.129Z,84.30
2022-11-28T18:34:22.735Z,84.30
2022-11-28T18:36:49.357Z,84.40
2022-11-28T18:39:16.977Z,84.30
2022-11-28T18:41:43.750Z,84.30
2022-11-28T18:44:11.054Z,84.30
2022-11-28T18:46:39.650Z,84.30
2022-11-28T18:49:06.367Z,84.30
2022-11-28T18:51:34.701Z,84.30
2022-11-28T18:54:04.254Z,84.40
2022-11-28T18:56:30.929Z,84.40
2022-11-28T18:58:58.200Z,84.40
2022-11-28T19:01:30.445Z,84.50
2022-11-28T19:03:58.501Z,84.50
2022-11-28T19:06:26.173Z,84.60
2022-11-28T19:08:55.324Z,84.60
2022-11-28T19:11:22.974Z,84.60
2022-11-28T19:13:51.525Z,84.60
2022-11-28T19:16:20.562Z,84.60
2022-11-28T19:18:47.455Z,84.50
2022-11-28T19:21:23.687Z,84.40
2022-11-28T19:23:51.403Z,84.60
2022-11-28T19:26:20.633Z,84.70
2022-11-28T19:28:47.472Z,84.70
2022-11-28T19:31:26.964Z,84.70
2022-11-28T19:34:05.654Z,84.80
2022-11-28T19:36:35.421Z,84.90
2022-11-28T19:39:02.458Z,84.90
2022-11-28T19:41:29.811Z,84.90
2022-11-28T19:43:56.987Z,85.00
2022-11-28T19:46:23.610Z,85.00
2022-11-28T19:48:51.655Z,85.00
2022-11-28T19:51:19.001Z,85.00
2022-11-28T19:53:45.753Z,85.00
2022-11-28T19:56:18.522Z,84.90
2022-11-28T19:58:45.834Z,84.90
2022-11-28T20:01:13.751Z,84.90
2022-11-28T20:03:41.793Z,84.90
2022-11-28T20:06:10.504Z,85.00
2022-11-28T20:08:38.782Z,85.00
2022-11-28T20:11:17.886Z,85.00
2022-11-28T20:13:46.111Z,85.10
2022-11-28T20:16:14.819Z,85.10
2022-11-28T20:18:43.001Z,85.10
2022-11-28T20:21:12.372Z,85.20
2022-11-28T20:23:42.581Z,85.10
2022-11-28T20:26:10.053Z,85.00
2022-11-28T20:28:38.441Z,85.00
2022-11-28T20:31:06.801Z,85.00
2022-11-28T20:33:33.783Z,85.80
2022-11-28T20:36:15.627Z,85.10
2022-11-28T20:38:42.209Z,85.10
2022-11-28T20:41:11.229Z,85.10
2022-11-28T20:43:39.126Z,85.10
2022-11-28T20:46:11.541Z,85.20
2022-11-28T20:48:38.551Z,85.30
2022-11-28T20:51:13.416Z,85.10
2022-11-28T20:53:41.288Z,85.10
2022-11-28T20:56:19.273Z,84.90
2022-11-28T20:58:46.334Z,85.00
2022-11-28T21:01:14.912Z,85.00
2022-11-28T21:03:41.829Z,85.10
2022-11-28T21:06:09.210Z,85.00
2022-11-28T21:08:36.486Z,85.10
2022-11-28T21:11:50.104Z,85.10
2022-11-28T21:14:09.577Z,85.20
2022-11-28T21:16:36.254Z,85.10
2022-11-28T21:19:07.426Z,85.10
2022-11-28T21:21:35.643Z,85.10
2022-11-28T21:24:05.109Z,85.20
2022-11-28T21:26:37.559Z,85.20
2022-11-28T21:29:07.297Z,85.20
2022-11-28T21:31:36.813Z,85.30
2022-11-28T21:34:04.013Z,85.20
2022-11-28T21:36:30.975Z,85.30
2022-11-28T21:39:00.010Z,85.30
2022-11-28T21:41:32.014Z,85.20
2022-11-28T21:43:59.719Z,85.30
2022-11-28T21:46:27.283Z,85.20
2022-11-28T21:48:53.933Z,85.20
2022-11-28T21:51:23.281Z,85.20
2022-11-28T21:53:50.422Z,85.20
2022-11-28T21:56:17.865Z,85.30
2022-11-28T21:58:44.419Z,85.20
2022-11-28T22:01:12.799Z,85.10
2022-11-28T22:03:40.967Z,85.10
2022-11-28T22:06:17.342Z,85.80
2022-11-28T22:08:44.585Z,85.00
2022-11-28T22:11:13.042Z,85.00
2022-11-28T22:13:42.069Z,85.00
2022-11-28T22:16:19.266Z,85.10
2022-11-28T22:18:47.237Z,85.10
2022-11-28T22:21:49.963Z,85.10
2022-11-28T22:24:02.911Z,85.90
2022-11-28T22:26:29.509Z,85.20
2022-11-28T22:28:56.141Z,85.20
2022-11-28T22:31:23.108Z,85.30
2022-11-28T22:33:50.049Z,85.30
2022-11-28T22:36:19.106Z,85.40
2022-11-28T22:38:47.094Z,85.40
2022-11-28T22:41:24.847Z,85.40
2022-11-28T22:43:56.539Z,85.50
2022-11-28T22:46:23.334Z,85.50
2022-11-28T22:48:51.631Z,85.50
2022-11-28T22:51:22.103Z,85.50
2022-11-28T22:53:56.073Z,85.60
2022-11-28T22:56:23.102Z,85.60
2022-11-28T22:58:49.929Z,85.60
2022-11-28T23:01:26.518Z,85.50
2022-11-28T23:03:54.551Z,85.50
2022-11-28T23:06:24.047Z,85.40
2022-11-28T23:08:51.010Z,85.50
2022-11-28T23:11:20.814Z,85.50
2022-11-28T23:13:48.207Z,85.50
2022-11-28T23:16:16.236Z,85.60
2022-11-28T23:18:44.712Z,85.50
2022-11-28T23:21:14.898Z,86.20
2022-11-28T23:23:41.760Z,85.50
2022-11-28T23:26:11.301Z,85.40
2022-11-28T23:28:38.781Z,85.40
2022-11-28T23:31:07.477Z,85.40
2022-11-28T23:33:34.636Z,85.40
2022-11-28T23:36:10.046Z,85.30
2022-11-28T23:38:36.589Z,85.30
2022-11-28T23:41:03.317Z,85.30
2022-11-28T23:43:29.912Z,85.30
2022-11-28T23:45:56.540Z,85.30
2022-11-28T23:48:23.182Z,85.40
2022-11-28T23:50:49.813Z,85.40
2022-11-28T23:53:16.775Z,85.40
2022-11-28T23:55:43.608Z,85.40
2022-11-28T23:58:10.183Z,85.40
